Time;durP1;ratioP1;P1;durP2;ratioP2;P2;SDS_P1;SDS_P2;PMS_P1;PMS_P2;Temp;Humidity;BMP_temperature;BMP_pressure;BME280_temperature;BME280_humidity;BME280_pressure;Samples;Min_cycle;Max_cycle;Signal;HPM_P1;HPM_P2
2021/04/25 00:00:19;;;;;;;20.23;11.33;;;;;;;4.88;54.60;100589.67;147292;1147;104822;-76
2021/04/25 00:03:22;;;;;;;19.90;11.28;;;;;;;4.88;54.35;100586.19;147787;1147;104569;-77
2021/04/25 00:06:26;;;;;;;22.15;11.40;;;;;;;4.89;53.86;100587.89;147781;1147;104563;-78
2021/04/25 00:09:29;;;;;;;21.10;11.38;;;;;;;4.86;54.02;100574.88;147612;1146;104571;-77
2021/04/25 00:12:32;;;;;;;19.93;10.87;;;;;;;4.77;53.98;100573.71;147776;1147;104561;-78
2021/04/25 00:15:36;;;;;;;18.05;10.63;;;;;;;4.76;54.33;100574.69;147795;1146;104572;-78
2021/04/25 00:18:40;;;;;;;20.48;10.70;;;;;;;4.74;54.23;100562.53;147734;1147;104486;-76
2021/04/25 00:21:43;;;;;;;19.87;10.83;;;;;;;4.68;53.92;100559.36;147755;1146;104537;-77
2021/04/25 00:24:46;;;;;;;52.70;26.00;;;;;;;4.59;54.12;100564.45;147757;1148;104613;-77
2021/04/25 00:27:49;;;;;;;33.30;15.83;;;;;;;4.47;54.87;100556.42;147802;1148;104500;-81
2021/04/25 00:30:53;;;;;;;22.60;12.25;;;;;;;4.40;54.18;100554.30;147758;1147;104556;-78
2021/04/25 00:33:56;;;;;;;20.57;11.65;;;;;;;4.40;54.48;100543.73;147694;1146;104479;-78
2021/04/25 00:36:59;;;;;;;24.47;11.70;;;;;;;4.41;54.39;100545.44;147544;1147;104572;-78
2021/04/25 00:40:04;;;;;;;21.25;12.13;;;;;;;4.42;53.98;100536.55;147727;1147;104730;-78
2021/04/25 00:43:07;;;;;;;20.15;10.68;;;;;;;4.43;54.71;100538.25;147607;1147;104495;-75
2021/04/25 00:46:10;;;;;;;18.77;10.15;;;;;;;4.33;54.51;100536.24;147724;1148;104469;-73
2021/04/25 00:49:13;;;;;;;73.60;27.85;;;;;;;4.09;56.28;100545.84;147728;1147;104488;-73
2021/04/25 00:52:17;;;;;;;36.08;18.77;;;;;;;3.82;54.33;100533.55;147692;1148;104519;-78
2021/04/25 00:55:21;;;;;;;31.15;16.17;;;;;;;3.82;54.47;100536.19;147389;1147;104628;-78
2021/04/25 00:58:24;;;;;;;27.35;14.38;;;;;;;3.90;54.53;100541.79;147782;1147;104575;-79
2021/04/25 01:01:27;;;;;;;30.05;14.58;;;;;;;3.91;55.82;100543.50;147557;1148;104469;-77
2021/04/25 01:04:31;;;;;;;33.90;16.90;;;;;;;3.72;54.84;100529.84;147291;1146;104483;-78
2021/04/25 01:07:34;;;;;;;26.82;14.23;;;;;;;3.74;55.55;100526.14;147712;1147;105078;-79
2021/04/25 01:10:37;;;;;;;24.33;12.40;;;;;;;3.74;55.09;100522.67;147653;1147;104572;-79
2021/04/25 01:13:40;;;;;;;29.75;14.75;;;;;;;3.72;55.24;100527.20;147319;1147;104572;-76
2021/04/25 01:16:43;;;;;;;35.28;15.15;;;;;;;3.62;56.07;100534.02;147541;1147;104531;-73
2021/04/25 01:19:47;;;;;;;32.98;14.18;;;;;;;3.52;55.38;100526.74;147776;1146;104470;-74
2021/04/25 01:22:51;;;;;;;25.72;13.20;;;;;;;3.63;56.09;100533.09;147769;1147;104569;-74
2021/04/25 01:25:54;;;;;;;24.57;12.83;;;;;;;3.66;55.85;100528.45;147750;1147;104569;-74
2021/04/25 01:28:57;;;;;;;25.35;12.80;;;;;;;3.74;56.28;100522.67;147781;1148;104479;-73
2021/04/25 01:32:00;;;;;;;19.95;10.50;;;;;;;3.83;55.53;100523.83;147458;1146;104429;-74
2021/04/25 01:35:05;;;;;;;18.60;10.32;;;;;;;3.85;55.44;100522.80;147295;1147;104567;-76
2021/04/25 01:38:08;;;;;;;23.80;13.95;;;;;;;3.85;55.85;100520.16;147305;1145;105042;-76
2021/04/25 01:41:11;;;;;;;20.37;12.63;;;;;;;3.90;55.37;100504.83;147330;1146;104483;-77
2021/04/25 01:44:14;;;;;;;20.45;12.50;;;;;;;3.92;55.62;100507.38;147325;1147;104451;-77
2021/04/25 01:47:17;;;;;;;22.95;10.10;;;;;;;3.91;55.74;100508.34;147291;1146;104559;-77
2021/04/25 01:50:23;;;;;;;16.25;9.13;;;;;;;3.89;55.73;100504.96;147290;1146;104470;-77
2021/04/25 01:53:26;;;;;;;28.17;13.10;;;;;;;3.91;54.74;100511.82;147355;1146;104550;-77
2021/04/25 01:56:29;;;;;;;20.67;10.33;;;;;;;3.95;55.06;100509.82;147244;1147;104809;-75
2021/04/25 01:59:32;;;;;;;17.90;10.43;;;;;;;4.00;55.05;100509.49;147372;1147;104763;-75
2021/04/25 02:02:36;;;;;;;19.25;11.55;;;;;;;4.01;55.09;100503.28;147603;1147;104492;-76
2021/04/25 02:05:40;;;;;;;20.73;11.67;;;;;;;4.05;56.21;100502.12;147229;1146;104514;-76
2021/04/25 02:08:43;;;;;;;17.57;9.53;;;;;;;4.07;55.07;100502.86;147330;1146;104484;-77
2021/04/25 02:11:46;;;;;;;16.82;9.53;;;;;;;4.07;55.88;100498.41;147284;1148;104620;-76
2021/04/25 02:14:49;;;;;;;17.73;9.50;;;;;;;4.08;55.70;100494.83;147317;1146;104525;-77
2021/04/25 02:17:53;;;;;;;17.42;9.23;;;;;;;4.11;55.82;100483.20;147384;1147;104572;-73
2021/04/25 02:20:56;;;;;;;18.63;9.13;;;;;;;4.07;55.16;100489.66;147704;1148;104481;-72
2021/04/25 02:23:59;;;;;;;15.58;8.85;;;;;;;4.04;55.37;100496.00;147765;1147;104591;-73
2021/04/25 02:27:02;;;;;;;16.23;9.05;;;;;;;4.04;56.28;100496.00;147747;1147;104631;-73
2021/04/25 02:30:09;;;;;;;20.45;10.80;;;;;;;4.03;56.43;100490.81;147794;1146;104572;-73
2021/04/25 02:33:12;;;;;;;19.65;9.95;;;;;;;4.04;55.59;100497.77;147746;1147;104557;-75
2021/04/25 02:36:16;;;;;;;27.60;13.25;;;;;;;3.96;56.28;100515.94;147681;1148;104476;-72
2021/04/25 02:39:19;;;;;;;26.37;12.57;;;;;;;3.64;55.94;100506.61;147732;1147;104573;-79
2021/04/25 02:42:22;;;;;;;18.85;10.10;;;;;;;3.59;55.84;100510.50;147605;1147;104482;-76
2021/04/25 02:45:27;;;;;;;27.73;13.90;;;;;;;3.66;57.12;100499.43;147582;1146;104473;-75
2021/04/25 02:48:31;;;;;;;21.30;11.43;;;;;;;3.68;56.11;100505.45;147311;1147;104506;-77
2021/04/25 02:51:35;;;;;;;22.95;11.73;;;;;;;3.73;55.99;100497.21;147333;1148;104569;-83
2021/04/25 02:54:38;;;;;;;25.15;13.20;;;;;;;3.80;55.85;100498.50;147531;1146;104469;-77
2021/04/25 02:57:41;;;;;;;23.80;12.65;;;;;;;3.87;57.08;100494.50;147544;1147;104599;-75
2021/04/25 03:00:45;;;;;;;27.32;13.15;;;;;;;3.91;56.06;100489.86;147555;1148;104622;-76
2021/04/25 03:03:48;;;;;;;27.67;13.05;;;;;;;3.99;57.14;100490.17;147514;1147;104567;-75
2021/04/25 03:06:51;;;;;;;22.58;12.30;;;;;;;4.01;56.65;100498.84;147701;1148;104569;-74
2021/04/25 03:09:54;;;;;;;25.08;11.65;;;;;;;3.99;56.16;100503.38;147529;1147;104568;-79
2021/04/25 03:12:58;;;;;;;21.97;10.85;;;;;;;3.96;56.90;100494.81;147643;1147;104583;-78
2021/04/25 03:16:01;;;;;;;23.00;11.15;;;;;;;3.94;56.67;100508.11;147806;1147;104482;-78
2021/04/25 03:19:04;;;;;;;21.33;10.20;;;;;;;3.92;56.89;100502.93;147700;1147;104449;-75
2021/04/25 03:22:07;;;;;;;20.00;10.48;;;;;;;3.89;56.84;100497.87;147742;1146;104470;-74
2021/04/25 03:25:13;;;;;;;17.50;9.48;;;;;;;3.86;57.24;100500.72;147784;1147;104556;-75
2021/04/25 03:28:16;;;;;;;18.52;9.73;;;;;;;3.87;55.78;100505.06;147804;1147;104613;-74
2021/04/25 03:31:19;;;;;;;17.13;9.83;;;;;;;3.89;56.97;100502.32;147776;1147;104529;-76
2021/04/25 03:34:22;;;;;;;20.12;10.90;;;;;;;3.84;56.16;100507.06;147760;1147;104831;-75
2021/04/25 03:37:26;;;;;;;19.67;9.95;;;;;;;3.81;56.74;100509.89;147753;1147;104950;-75
2021/04/25 03:40:29;;;;;;;17.40;9.90;;;;;;;3.81;57.15;100508.12;147740;1147;104821;-79
2021/04/25 03:43:32;;;;;;;17.10;10.30;;;;;;;3.81;57.14;100497.56;147771;1146;104568;-76
2021/04/25 03:46:35;;;;;;;19.55;11.12;;;;;;;3.84;56.04;100502.62;147358;1147;104572;-77
2021/04/25 03:49:38;;;;;;;23.77;10.97;;;;;;;3.86;57.21;100498.08;147312;1147;104439;-76
2021/04/25 03:52:43;;;;;;;22.70;11.50;;;;;;;3.87;56.59;100499.78;147317;1146;104570;-77
2021/04/25 03:55:46;;;;;;;18.30;10.38;;;;;;;3.87;57.57;100501.58;147348;1147;104570;-77
2021/04/25 03:58:49;;;;;;;19.00;10.55;;;;;;;3.87;56.50;100505.06;147518;1146;104617;-74
2021/04/25 04:01:52;;;;;;;19.40;9.98;;;;;;;3.89;56.50;100513.72;147750;1147;104492;-77
2021/04/25 04:04:55;;;;;;;25.73;15.57;;;;;;;3.93;57.41;100512.56;147790;1147;104482;-76
2021/04/25 04:07:58;;;;;;;17.02;10.90;;;;;;;3.98;56.38;100516.67;147728;1147;104516;-74
2021/04/25 04:11:02;;;;;;;19.98;10.75;;;;;;;4.04;56.58;100510.97;147770;1146;104561;-74
2021/04/25 04:14:05;;;;;;;17.93;9.90;;;;;;;4.11;56.68;100509.61;147676;1147;105042;-74
2021/04/25 04:17:08;;;;;;;18.73;11.08;;;;;;;4.20;57.35;100514.27;147818;1147;104497;-75
2021/04/25 04:20:13;;;;;;;18.40;10.45;;;;;;;4.32;57.23;100508.12;147571;1147;104484;-75
2021/04/25 04:23:16;;;;;;;17.70;10.03;;;;;;;4.50;57.46;100515.71;147489;1147;104485;-73
2021/04/25 04:26:20;;;;;;;16.65;9.40;;;;;;;4.67;57.48;100517.17;147736;1147;104479;-77
2021/04/25 04:29:24;;;;;;;17.77;9.78;;;;;;;4.82;57.58;100509.95;147703;1147;104515;-76
2021/04/25 04:32:27;;;;;;;16.23;9.08;;;;;;;5.01;57.11;100512.96;147676;1146;104559;-75
2021/04/25 04:35:30;;;;;;;16.70;9.60;;;;;;;5.21;57.01;100505.37;147706;1146;104531;-73
2021/04/25 04:38:34;;;;;;;15.93;9.80;;;;;;;5.41;57.23;100501.25;147470;1147;104499;-74
2021/04/25 04:41:37;;;;;;;18.23;10.03;;;;;;;5.54;56.84;100499.38;147310;1146;104604;-73
2021/04/25 04:44:40;;;;;;;18.95;10.20;;;;;;;5.66;56.85;100494.99;147760;1146;104572;-74
2021/04/25 04:47:46;;;;;;;17.10;9.60;;;;;;;5.73;56.85;100501.48;147684;1147;104562;-73
2021/04/25 04:50:49;;;;;;;16.27;9.33;;;;;;;5.88;56.29;100504.79;147572;1146;104500;-72
2021/04/25 04:53:52;;;;;;;14.63;9.00;;;;;;;5.97;56.93;100503.29;147604;1147;104540;-73
2021/04/25 04:56:55;;;;;;;15.45;8.73;;;;;;;6.04;56.37;100499.19;147790;1146;104575;-74
2021/04/25 04:59:58;;;;;;;16.25;9.20;;;;;;;6.08;55.97;100504.15;147688;1148;104514;-73
2021/04/25 05:03:02;;;;;;;15.93;8.90;;;;;;;6.07;55.99;100498.97;147771;1146;104483;-75
2021/04/25 05:06:05;;;;;;;14.93;8.83;;;;;;;6.09;56.02;100494.39;147409;1146;104559;-75
2021/04/25 05:09:08;;;;;;;16.50;9.63;;;;;;;6.17;56.03;100486.69;147608;1146;104479;-76
2021/04/25 05:12:12;;;;;;;16.37;10.47;;;;;;;6.36;55.77;100485.27;147290;1147;104572;-75
2021/04/25 05:15:15;;;;;;;13.13;8.43;;;;;;;6.52;56.00;100485.72;147331;1147;104478;-74
2021/04/25 05:18:18;;;;;;;46.65;23.95;;;;;;;6.60;55.22;100487.77;147666;1148;104447;-73
2021/04/25 05:21:21;;;;;;;237.27;93.73;;;;;;;6.79;56.13;100492.45;147646;1148;104486;-76
2021/04/25 05:24:24;;;;;;;106.70;42.08;;;;;;;6.96;55.27;100485.80;147384;1147;104577;-75
2021/04/25 05:27:28;;;;;;;33.28;16.62;;;;;;;7.05;55.41;100493.85;147510;1147;104492;-76
2021/04/25 05:30:31;;;;;;;24.65;12.43;;;;;;;7.18;54.24;100493.70;147517;1147;104703;-76
2021/04/25 05:33:34;;;;;;;21.30;12.47;;;;;;;7.24;54.14;100487.89;147727;1146;104508;-74
2021/04/25 05:36:38;;;;;;;20.15;11.33;;;;;;;7.33;53.87;100483.63;147602;1148;104508;-76
2021/04/25 05:39:41;;;;;;;16.02;9.68;;;;;;;7.44;54.52;100485.40;147608;1147;104486;-74
2021/04/25 05:42:44;;;;;;;14.40;8.40;;;;;;;7.57;53.44;100487.89;147589;1147;104575;-78
2021/04/25 05:45:47;;;;;;;11.73;6.30;;;;;;;7.64;53.21;100489.91;147305;1147;104553;-76
2021/04/25 05:48:50;;;;;;;10.38;5.72;;;;;;;7.70;52.47;100491.20;147625;1147;104569;-76
2021/04/25 05:51:53;;;;;;;9.70;6.37;;;;;;;7.60;52.41;100487.61;147775;1148;104610;-77
2021/04/25 05:54:57;;;;;;;10.63;5.30;;;;;;;7.65;51.85;100491.57;147698;1147;104981;-78
2021/04/25 05:58:00;;;;;;;66.97;35.00;;;;;;;7.64;52.83;100489.04;147491;1147;104456;-76
2021/04/25 06:01:03;;;;;;;16.50;8.60;;;;;;;7.61;52.14;100495.45;147395;1147;104623;-74
2021/04/25 06:04:07;;;;;;;11.93;6.33;;;;;;;7.59;51.91;100499.22;147511;1148;104575;-78
2021/04/25 06:07:10;;;;;;;19.80;10.58;;;;;;;7.52;52.01;100498.04;147490;1146;104524;-76
2021/04/25 06:10:14;;;;;;;13.28;7.35;;;;;;;7.35;49.15;100500.30;147576;1147;104477;-76
2021/04/25 06:13:17;;;;;;;12.35;6.72;;;;;;;7.19;49.88;100505.99;147753;1147;104557;-74
2021/04/25 06:16:20;;;;;;;10.65;5.80;;;;;;;7.07;51.07;100499.88;147702;1147;104572;-75
2021/04/25 06:19:23;;;;;;;13.22;8.33;;;;;;;7.01;49.60;100492.42;147507;1147;104492;-76
2021/04/25 06:22:26;;;;;;;7.97;4.92;;;;;;;6.97;49.98;100496.29;147729;1147;104514;-72
2021/04/25 06:25:29;;;;;;;7.97;4.93;;;;;;;7.02;49.92;100493.25;147726;1146;104469;-72
2021/04/25 06:28:33;;;;;;;11.22;6.08;;;;;;;7.08;49.75;100488.31;147719;1147;104946;-72
2021/04/25 06:31:36;;;;;;;6.08;3.30;;;;;;;7.17;48.68;100504.44;147166;1147;104540;-74
2021/04/25 06:34:39;;;;;;;3.70;2.08;;;;;;;7.14;48.25;100497.58;147307;1147;104447;-74
2021/04/25 06:37:45;;;;;;;2.87;1.70;;;;;;;7.14;46.65;100497.58;147341;1146;104502;-73
2021/04/25 06:40:49;;;;;;;3.30;1.17;;;;;;;7.13;47.14;100497.70;147357;1147;104566;-76
2021/04/25 06:43:53;;;;;;;1.60;1.00;;;;;;;7.11;44.91;100504.95;147367;1147;104568;-76
2021/04/25 06:46:56;;;;;;;3.72;1.65;;;;;;;7.05;42.45;100499.16;147742;1147;105122;-75
2021/04/25 06:49:59;;;;;;;4.85;2.00;;;;;;;6.98;45.47;100497.96;147633;1147;104572;-77
2021/04/25 06:53:02;;;;;;;3.27;1.60;;;;;;;6.97;46.12;100498.94;147698;1147;104467;-77
2021/04/25 06:56:06;;;;;;;2.58;1.45;;;;;;;7.03;44.49;100503.75;147729;1146;104468;-74
2021/04/25 06:59:09;;;;;;;3.15;1.98;;;;;;;7.00;44.58;100508.45;147860;1147;104553;-77
2021/04/25 07:02:12;;;;;;;2.80;1.30;;;;;;;7.06;45.03;100506.16;147690;1147;105398;-77
2021/04/25 07:05:16;;;;;;;2.58;1.47;;;;;;;7.09;44.60;100507.72;147743;1147;104453;-79
2021/04/25 07:08:20;;;;;;;3.90;3.47;;;;;;;7.07;44.14;100497.22;147774;1148;104521;-77
2021/04/25 07:11:23;;;;;;;28.47;13.45;;;;;;;7.13;42.37;100495.05;147798;1147;104574;-77
2021/04/25 07:14:26;;;;;;;5.42;3.40;;;;;;;7.07;41.79;100501.69;147651;1147;104503;-75
2021/04/25 07:17:29;;;;;;;17.50;9.87;;;;;;;7.08;43.16;100501.58;147635;1147;104613;-76
2021/04/25 07:20:32;;;;;;;5.22;3.15;;;;;;;7.22;43.80;100497.79;147658;1147;104564;-76
2021/04/25 07:23:35;;;;;;;4.50;2.57;;;;;;;7.38;42.74;100500.02;147576;1147;104566;-74
2021/04/25 07:26:39;;;;;;;8.73;5.73;;;;;;;7.45;42.26;100490.59;147810;1147;104484;-76
2021/04/25 07:29:42;;;;;;;5.40;2.90;;;;;;;7.58;41.68;100500.17;147663;1147;104567;-73
2021/04/25 07:32:45;;;;;;;4.67;2.40;;;;;;;7.76;42.58;100503.96;147881;1146;104598;-73
2021/04/25 07:35:48;;;;;;;13.20;7.05;;;;;;;7.98;43.21;100507.46;147758;1147;104467;-75
2021/04/25 07:38:51;;;;;;;3.52;2.08;;;;;;;8.19;43.76;100492.33;147653;1145;104618;-75
2021/04/25 07:41:57;;;;;;;2.70;1.60;;;;;;;8.51;42.25;100502.05;147454;1147;104572;-78
2021/04/25 07:45:03;;;;;;;2.42;1.55;;;;;;;8.76;43.18;100486.59;147409;1147;104564;-80
2021/04/25 07:48:07;;;;;;;4.72;2.55;;;;;;;9.06;43.03;100490.16;147339;1147;104611;-76
2021/04/25 07:51:11;;;;;;;3.60;1.90;;;;;;;9.28;43.02;100495.23;147690;1148;104532;-74
2021/04/25 07:54:14;;;;;;;4.53;1.80;;;;;;;9.41;37.03;100484.29;147778;1147;104565;-82
2021/04/25 07:57:17;;;;;;;3.40;1.70;;;;;;;9.32;38.64;100493.97;147694;1147;104547;-79
2021/04/25 08:00:22;;;;;;;3.37;1.80;;;;;;;9.17;41.12;100484.71;147668;1147;104553;-80
2021/04/25 08:03:25;;;;;;;3.98;1.50;;;;;;;9.11;42.20;100494.09;147810;1147;104564;-75
2021/04/25 08:06:29;;;;;;;3.42;1.62;;;;;;;9.11;42.09;100487.93;147585;1147;104606;-76
2021/04/25 08:09:32;;;;;;;4.62;2.10;;;;;;;9.32;40.84;100493.14;147717;1147;104556;-78
2021/04/25 08:12:35;;;;;;;3.90;2.52;;;;;;;9.28;41.27;100492.58;147517;1147;104423;-76
2021/04/25 08:15:39;;;;;;;5.97;3.02;;;;;;;9.15;40.58;100489.33;147379;1147;104495;-81
2021/04/25 08:18:42;;;;;;;2.95;2.00;;;;;;;8.96;39.97;100493.63;147682;1147;104575;-74
2021/04/25 08:21:46;;;;;;;3.00;1.80;;;;;;;8.84;38.67;100497.39;147567;1147;104564;-76
2021/04/25 08:24:49;;;;;;;13.63;7.30;;;;;;;8.74;41.52;100501.86;147589;1147;104566;-76
2021/04/25 08:27:53;;;;;;;5.53;3.08;;;;;;;8.53;40.98;100500.09;147749;1147;104489;-83
2021/04/25 08:30:56;;;;;;;10.85;5.62;;;;;;;8.49;40.21;100498.68;147711;1148;104487;-79
2021/04/25 08:33:59;;;;;;;3.60;2.17;;;;;;;8.53;40.12;100492.11;147718;1148;104548;-77
2021/04/25 08:37:02;;;;;;;33.23;15.45;;;;;;;8.58;40.53;100497.88;147776;1147;104553;-78
2021/04/25 08:40:08;;;;;;;9.53;4.20;;;;;;;8.78;41.42;100487.30;147777;1147;104934;-75
2021/04/25 08:43:13;;;;;;;6.17;3.67;;;;;;;9.11;39.28;100480.78;147785;1147;104871;-76
2021/04/25 08:46:18;;;;;;;14.30;7.85;;;;;;;9.35;39.95;100483.05;147746;1147;104572;-75
2021/04/25 08:49:25;;;;;;;4.20;2.20;;;;;;;9.42;39.45;100478.83;147390;1147;104620;-80
2021/04/25 08:52:29;;;;;;;4.12;2.12;;;;;;;9.37;35.39;100481.09;147444;1147;104565;-79
2021/04/25 08:55:32;;;;;;;2.52;2.17;;;;;;;9.27;39.17;100482.89;147618;1147;104573;-74
2021/04/25 08:58:36;;;;;;;4.65;2.17;;;;;;;8.91;36.72;100474.59;147655;1147;104485;-77
2021/04/25 09:01:39;;;;;;;2.87;1.77;;;;;;;8.54;36.76;100476.98;147782;1147;104450;-72
2021/04/25 09:04:42;;;;;;;2.92;2.00;;;;;;;8.31;35.75;100468.33;147744;1147;104573;-72
2021/04/25 09:07:56;;;;;;;7.55;4.28;;;;;;;8.32;38.88;100468.20;147798;1147;104433;-72
2021/04/25 09:10:59;;;;;;;3.52;2.22;;;;;;;8.43;37.34;100480.61;147797;1147;104414;-74
2021/04/25 09:14:29;;;;;;;9.20;4.35;;;;;;;8.50;38.42;100475.58;147767;1148;104472;-73
2021/04/25 09:17:49;;;;;;;21.35;12.05;;;;;;;8.56;38.61;100472.38;147464;1147;104469;-72
2021/04/25 09:20:52;;;;;;;5.80;3.97;;;;;;;8.89;39.40;100465.91;147761;1147;104574;-72
2021/04/25 09:23:55;;;;;;;8.23;6.07;;;;;;;9.29;39.56;100456.95;147779;1148;104563;-75
2021/04/25 09:26:59;;;;;;;21.00;12.03;;;;;;;9.55;38.49;100451.92;147759;1147;104551;-71
2021/04/25 09:30:08;;;;;;;5.00;2.85;;;;;;;9.62;35.84;100454.84;147726;1147;104543;-73
2021/04/25 09:33:12;;;;;;;2.47;1.30;;;;;;;9.68;35.99;100445.44;147790;1147;104518;-74
2021/04/25 09:36:17;;;;;;;2.70;1.25;;;;;;;9.73;33.57;100448.53;147545;1147;104630;-76
2021/04/25 09:39:21;;;;;;;32.30;18.00;;;;;;;9.51;31.95;100445.20;147181;1148;104522;-73
2021/04/25 09:42:24;;;;;;;22.30;12.80;;;;;;;9.28;32.06;100457.95;147683;1147;104569;-72
2021/04/25 09:45:29;;;;;;;7.50;3.00;;;;;;;8.95;33.41;100454.70;147727;1147;104471;-73
2021/04/25 09:48:33;;;;;;;17.17;9.93;;;;;;;8.85;33.91;100456.48;147756;1147;104477;-74
2021/04/25 09:51:44;;;;;;;12.53;7.37;;;;;;;9.01;36.39;100462.13;147276;1147;104648;-72
2021/04/25 09:54:47;;;;;;;4.13;2.40;;;;;;;9.27;33.98;100447.44;147332;1148;104536;-69
2021/04/25 09:57:55;;;;;;;3.03;2.00;;;;;;;9.55;35.65;100445.76;147465;1147;104543;-70
2021/04/25 10:01:01;;;;;;;4.40;3.27;;;;;;;9.97;36.40;100445.41;147127;1147;104478;-73
2021/04/25 10:04:25;;;;;;;3.60;3.05;;;;;;;10.31;36.43;100436.88;147387;1147;104620;-71
2021/04/25 10:07:35;;;;;;;1.93;1.40;;;;;;;10.32;34.98;100435.91;147649;1147;104844;-73
2021/04/25 10:10:49;;;;;;;2.22;1.40;;;;;;;10.30;35.66;100441.39;147751;1148;104579;-74
2021/04/25 10:13:52;;;;;;;2.50;1.25;;;;;;;10.18;33.84;100438.03;147771;1147;104943;-72
2021/04/25 10:16:56;;;;;;;1.95;1.30;;;;;;;9.85;31.39;100449.20;147869;1147;104471;-73
2021/04/25 10:19:59;;;;;;;2.53;1.00;;;;;;;9.60;31.19;100449.68;147751;1146;104575;-73
2021/04/25 10:23:03;;;;;;;1.82;1.17;;;;;;;9.52;34.70;100449.52;147797;1147;104609;-74
2021/04/25 10:26:11;;;;;;;3.33;1.47;;;;;;;9.53;34.27;100447.73;147698;1147;104550;-73
2021/04/25 10:29:16;;;;;;;14.38;6.95;;;;;;;9.51;32.71;100449.69;147732;1147;104474;-74
2021/04/25 10:32:21;;;;;;;5.67;3.62;;;;;;;9.55;33.82;100445.76;147853;1147;104569;-72
2021/04/25 10:35:28;;;;;;;3.73;2.87;;;;;;;9.79;32.16;100446.12;147640;1147;104563;-73
2021/04/25 10:38:38;;;;;;;2.67;1.80;;;;;;;10.00;34.55;100431.77;147829;1148;104547;-71
2021/04/25 10:41:42;;;;;;;2.00;0.98;;;;;;;10.52;34.67;100431.31;147797;1147;104593;-73
2021/04/25 10:45:25;;;;;;;2.90;1.62;;;;;;;10.69;31.42;100435.02;147350;1147;104681;-71
2021/04/25 10:48:30;;;;;;;5.60;1.60;;;;;;;10.67;32.74;100432.49;147850;1147;104503;-75
2021/04/25 10:51:44;;;;;;;1.50;0.90;;;;;;;10.90;33.16;100437.42;147705;1147;104879;-74
2021/04/25 10:55:20;;;;;;;17.40;6.20;;;;;;;10.73;30.99;100444.41;147331;1147;105060;-71
2021/04/25 10:58:24;;;;;;;7.45;3.50;;;;;;;10.43;32.29;100441.06;147706;1147;104470;-76
2021/04/25 11:01:47;;;;;;;3.12;1.70;;;;;;;10.46;33.82;100440.74;147675;1147;104423;-70
2021/04/25 11:05:07;;;;;;;3.33;1.20;;;;;;;10.60;33.40;100448.27;147437;1147;104572;-72
2021/04/25 11:08:36;;;;;;;2.30;1.20;;;;;;;10.50;32.52;100444.80;147701;1147;104478;-74
2021/04/25 11:11:40;;;;;;;4.47;1.10;;;;;;;10.52;32.47;100444.66;147817;1147;104570;-75
2021/04/25 11:14:43;;;;;;;1.20;1.00;;;;;;;10.59;29.51;100457.25;147623;1146;104508;-74
2021/04/25 11:17:46;;;;;;;2.53;1.10;;;;;;;10.46;29.76;100454.09;147781;1147;104512;-73
2021/04/25 11:20:49;;;;;;;2.60;1.20;;;;;;;10.34;29.55;100463.27;147785;1147;104572;-73
2021/04/25 11:23:53;;;;;;;2.70;1.60;;;;;;;10.10;31.47;100461.89;147531;1147;104452;-74
2021/04/25 11:26:59;;;;;;;1.60;1.00;;;;;;;9.93;30.37;100466.17;147374;1147;104609;-75
2021/04/25 11:30:03;;;;;;;2.07;1.10;;;;;;;9.87;31.48;100472.05;147623;1147;104564;-75
2021/04/25 11:33:31;;;;;;;2.75;1.40;;;;;;;9.83;32.63;100466.20;147773;1148;104521;-75
2021/04/25 11:36:39;;;;;;;3.77;2.15;;;;;;;9.85;31.47;100481.19;147411;1147;104524;-73
2021/04/25 11:39:44;;;;;;;3.02;1.70;;;;;;;9.86;33.20;100474.89;147429;1147;104572;-75
2021/04/25 11:42:47;;;;;;;2.17;1.42;;;;;;;9.78;32.89;100471.10;147544;1147;104613;-73
2021/04/25 11:45:50;;;;;;;2.52;1.60;;;;;;;9.88;33.23;100468.42;147538;1147;104604;-70
2021/04/25 11:48:57;;;;;;;2.37;1.33;;;;;;;10.08;33.13;100466.53;147372;1147;104602;-74
2021/04/25 11:52:10;;;;;;;41.63;17.48;;;;;;;10.16;32.50;100460.48;147340;1147;104530;-74
2021/04/25 11:55:16;;;;;;;6.83;3.00;;;;;;;10.31;32.99;100459.05;147377;1147;104909;-72
2021/04/25 11:58:20;;;;;;;3.85;1.72;;;;;;;10.45;31.82;100471.09;147740;1147;104614;-73
2021/04/25 12:01:24;;;;;;;8.38;3.90;;;;;;;10.89;33.01;100478.44;147919;1147;104985;-75
2021/04/25 12:04:44;;;;;;;4.12;2.08;;;;;;;11.08;31.65;100483.66;147770;1146;104473;-74
2021/04/25 12:07:49;;;;;;;11.38;7.05;;;;;;;10.77;31.17;100488.48;147408;1147;104566;-76
2021/04/25 12:10:54;;;;;;;3.87;2.35;;;;;;;11.06;32.74;100492.81;147633;1146;104481;-73
2021/04/25 12:13:57;;;;;;;7.05;1.98;;;;;;;11.14;30.84;100493.75;147482;1147;104615;-74
2021/04/25 12:17:15;;;;;;;3.42;2.12;;;;;;;10.88;33.51;100482.95;147579;1147;104486;-72
2021/04/25 12:20:18;;;;;;;8.27;4.90;;;;;;;10.80;33.67;100491.70;147920;1147;104447;-74
2021/04/25 12:23:23;;;;;;;7.15;4.70;;;;;;;10.31;32.36;100496.39;147803;1147;104477;-75
2021/04/25 12:26:27;;;;;;;3.58;1.92;;;;;;;10.15;33.35;100499.64;147775;1147;104570;-76
2021/04/25 12:29:37;;;;;;;6.37;3.47;;;;;;;10.18;32.81;100502.03;147766;1147;104532;-75
2021/04/25 12:32:40;;;;;;;2.65;1.45;;;;;;;10.02;33.49;100504.44;147956;1146;104570;-75
2021/04/25 12:35:46;;;;;;;2.25;1.02;;;;;;;9.95;33.24;100497.99;148033;1147;104566;-75
2021/04/25 12:38:57;;;;;;;5.90;2.65;;;;;;;9.73;32.60;100510.65;147654;1147;104483;-76
2021/04/25 12:42:01;;;;;;;5.55;1.95;;;;;;;9.75;33.12;100508.68;148236;1147;104447;-76
2021/04/25 12:45:05;;;;;;;6.65;3.60;;;;;;;9.61;34.01;100504.63;147803;1147;104595;-75
2021/04/25 12:48:29;;;;;;;10.78;5.37;;;;;;;9.53;34.92;100517.81;147969;1147;104540;-76
2021/04/25 12:51:33;;;;;;;11.00;5.70;;;;;;;9.60;35.69;100505.63;147802;1147;105746;-75
2021/04/25 12:54:41;;;;;;;4.75;2.15;;;;;;;9.72;34.09;100506.31;147902;1147;104569;-75
2021/04/25 12:57:44;;;;;;;2.15;1.12;;;;;;;9.79;32.17;100527.90;147735;1147;104569;-75
2021/04/25 13:00:47;;;;;;;1.37;0.80;;;;;;;9.66;33.17;100512.22;147903;1147;104601;-75
2021/04/25 13:03:50;;;;;;;1.80;0.85;;;;;;;9.62;33.69;100501.00;147847;1147;104562;-76
2021/04/25 13:07:32;;;;;;;7.83;4.53;;;;;;;9.51;33.27;100529.60;147644;1147;104543;-76
2021/04/25 13:10:35;;;;;;;2.70;1.67;;;;;;;9.30;33.76;100521.73;147785;1147;104563;-75
2021/04/25 13:13:38;;;;;;;10.20;6.15;;;;;;;9.12;34.32;100518.87;147795;1147;104519;-75
2021/04/25 13:16:43;;;;;;;4.70;2.37;;;;;;;9.07;33.34;100516.64;147519;1146;104610;-75
2021/04/25 13:19:46;;;;;;;8.77;4.87;;;;;;;9.15;34.67;100513.30;147776;1147;104652;-76
2021/04/25 13:22:54;;;;;;;3.07;2.20;;;;;;;9.33;34.60;100502.80;147883;1147;104901;-75
2021/04/25 13:25:59;;;;;;;2.92;1.60;;;;;;;9.41;34.33;100502.94;147819;1148;104572;-75
2021/04/25 13:29:07;;;;;;;11.18;6.53;;;;;;;9.32;34.53;100507.29;147764;1147;104458;-75
2021/04/25 13:32:10;;;;;;;3.42;2.05;;;;;;;9.17;33.94;100508.67;147792;1148;104732;-72
2021/04/25 13:35:13;;;;;;;8.58;4.75;;;;;;;9.01;34.29;100496.73;147896;1147;104463;-72
2021/04/25 13:38:19;;;;;;;4.90;2.80;;;;;;;8.88;33.74;100485.50;147599;1147;104488;-74
2021/04/25 13:41:22;;;;;;;4.40;1.90;;;;;;;8.95;34.28;100483.12;147442;1147;104535;-75
2021/04/25 13:44:25;;;;;;;6.13;2.90;;;;;;;8.99;34.03;100487.22;147674;1147;104947;-77
2021/04/25 13:47:29;;;;;;;2.08;1.22;;;;;;;9.04;32.59;100485.83;147699;1147;104525;-74
2021/04/25 13:50:32;;;;;;;8.30;4.92;;;;;;;8.98;33.70;100486.34;147406;1147;104552;-74
2021/04/25 13:53:37;;;;;;;5.05;2.80;;;;;;;9.13;33.72;100483.31;147728;1147;104553;-74
2021/04/25 13:56:41;;;;;;;3.52;1.82;;;;;;;9.34;34.13;100475.20;147801;1147;104479;-73
2021/04/25 13:59:44;;;;;;;3.20;1.20;;;;;;;9.52;33.88;100475.33;147918;1147;104540;-74